x

La Have Bank (44150) Wave Buoy

12:00am - Tue 30th Jun 2015 All times are ADT. -3 hours from GMT.

  • Sig Wave height 7.2ft
  • Peak Period 9s
  • Wind
    13mph, 16mph gusts
  • Sea Temp 53°f
  • Air Temp 61°f
  • Sea Pressure 1015.3mb
  • La Have Bank
  • La Have Bank

More Historic Weather Station data

Upgrade to MSW Pro to gain access to the past 30 days of data for over 8000 Wavebouys and Weather Stations around the globe.

Join Pro

Comparision Forecast

View Surf forecast
   
Tue 06/30 12:00am 7ft 9s 13 16 mph 1015.3mb 53f 61f
Mon 06/29 11:00pm 7.5ft 10s 11 13 mph 1015.3mb 52f 62f
10:00pm 7.5ft 10s 11
mph
1015mb 53f 61f
9:00pm 8ft 11s 11 13 mph 1014.7mb 53f 60f
8:00pm 8ft 10s 7 9 mph 1014.6mb 52f 59f
7:00pm 8.5ft 10s 7 9 mph 1014.3mb 52f 59f
6:00pm 9ft 9s 7 9 mph 1014.3mb 52f 57f
5:00pm 9.5ft 8s 9
mph
1014mb 51f 57f
4:00pm 10ft 9s 9 11 mph 1013.1mb 51f 57f
3:00pm 11ft 9s 11 13 mph 1012.2mb 51f 56f
2:00pm 12ft 10s 11 13 mph 1011.5mb 51f 56f
1:00pm 11.5ft 9s 16 20 mph 1011.2mb 51f 56f
12:00pm 12ft 10s 16 20 mph 1011.4mb 52f 56f
11:00am 12ft 10s 18 22 mph 1011.9mb 54f 56f
10:00am 11.5ft 9s 20 27 mph 1012mb 57f 58f
9:00am 11ft 9s 20 27 mph 1011.3mb 59f 59f
8:00am 9ft 10s 20 25 mph 1010.6mb 59f 59f
7:00am 9ft 9s 20 25 mph 1010mb 58f 58f
6:00am 10ft 10s 20 25 mph 1009.9mb 59f 59f
5:00am 10ft 9s 18 22 mph 1010mb 59f 62f
4:00am 9.5ft 9s 16 18 mph 1010.7mb 59f 62f
3:00am 9ft 9s 16 18 mph 1011.3mb 59f 63f
2:00am 10ft 9s 13 16 mph 1011.9mb 59f 64f
1:00am 10ft 10s 13
mph
1011mb 58f 63f
12:00am 11.5ft 9s 9 11 mph 1009.5mb 56f 62f
Sun 06/28 11:00pm 12ft 9s 9 11 mph 1008.2mb 52f 62f
10:00pm 13.5ft 10s 20
mph
1008.1mb 51f 57f
9:00pm 13.5ft 9s 31 40 mph 1008.3mb 51f 59f
8:00pm  -   -   -  mph 1009.2mb - 60f
7:00pm 11ft 8s 38 45 mph 1010.3mb 51f 57f
6:00pm 9ft 6s 36 40 mph 1012.6mb 52f 57f
5:00pm  -   -  31
mph
- - -
4:00pm  -   -  27
mph
1016.3mb - 56f
3:00pm 6ft 6s 22 27 mph 1017.7mb 52f 55f
1:00pm 6ft  -  20
mph
1019.8mb 52f 55f
12:00pm 5ft 5s 22 27 mph 1021.2mb 52f 54f
11:00am 4.5ft 9s 18 22 mph 1022.4mb 52f 55f
9:00am  -   -  16
mph
- - 55f
8:00am 3.5ft 9s 16 18 mph 1023.4mb 53f 55f
6:00am 3.5ft 8s 11 13 mph 1023mb 53f 55f
5:00am 4ft 8s 11 13 mph 1023mb 53f 55f
4:00am 3.5ft 8s 9 11 mph 1023.4mb 53f 55f
3:00am 4ft 8s 7 9 mph 1023.5mb 53f 54f
2:00am 4ft 8s 7 9 mph 1023.2mb 53f 54f
1:00am 4ft 8s 4 7 mph 1023.1mb 53f 54f
12:00am 4ft 8s 4 7 mph 1022.9mb 53f 54f
Sat 06/27 11:00pm 4.5ft 9s 7
mph
1022.7mb 53f 54f
10:00pm 4ft 9s 7
mph
1022.5mb 54f 54f
9:00pm 4ft 9s 7
mph
1022.8mb 54f 54f
8:00pm 4ft 9s 4
mph
1023.4mb 54f 55f
7:00pm 3.5ft 7s 4
mph
1024mb 54f 55f
6:00pm 3.5ft 9s 4
mph
1024.4mb 55f 55f
5:00pm 3ft 8s 7
mph
1024.9mb 55f 55f
4:00pm 3.5ft 5s 4 7 mph 1025.3mb 54f 55f
3:00pm 3.5ft 5s 7 9 mph 1026mb 54f 55f
2:00pm 3.5ft 5s 7 9 mph 1026.4mb 54f 55f
1:00pm 3ft 5s 4 7 mph 1026.2mb 53f 54f
12:00pm 2.5ft 5s 4 7 mph 1025.2mb 53f 54f
11:00am 2.5ft 5s 7 9 mph 1024.1mb 53f 54f
10:00am 2.5ft 5s 9
mph
1023mb 52f 54f
9:00am 2.5ft 4s 9
mph
1021.4mb 52f 54f
8:00am 2.5ft 8s 9
mph
1019.7mb 52f 53f
6:00am 2.5ft 7s 11 13 mph 1016.8mb 52f 53f
5:00am 2.5ft 8s 13 18 mph 1016.1mb 52f 53f
4:00am 3ft 7s 9
mph
1015.6mb 52f 54f
3:00am 3ft 8s 11
mph
1015.3mb 52f 54f
2:00am 3ft 7s 9 11 mph 1015.3mb 52f 54f
1:00am 2.5ft 7s 13 18 mph 1015.2mb 52f 54f
12:00am 2.5ft 8s 13 20 mph 1015.2mb 52f 56f
Fri 06/26 11:00pm 2.5ft 8s 16 18 mph 1015.1mb 52f 55f
10:00pm 2.5ft 8s 11 13 mph 1014.8mb 53f 55f
9:00pm 2.5ft 8s 11 13 mph 1014.6mb 53f 55f
8:00pm 2.5ft 8s 9 11 mph 1014.5mb 53f 55f
7:00pm 2.5ft 8s 9 11 mph 1014.5mb 53f 56f
6:00pm 2.5ft 8s 9 11 mph 1015.3mb 53f 56f
5:00pm 2ft 8s 9 11 mph 1017mb 53f 56f
4:00pm 2.5ft 9s 9
mph
1018.7mb 54f 56f
3:00pm 2.5ft 8s 7 9 mph 1019.9mb 54f 57f
2:00pm 2.5ft 8s 4
mph
1020.6mb 54f 57f
1:00pm 2.5ft 8s 2 4 mph 1020.7mb 53f 58f
12:00pm 2.5ft 8s 7
mph
1021mb 53f 58f
11:00am 2.5ft 8s 7
mph
1020mb 53f 58f
10:00am 3ft 8s 7
mph
1019.2mb 52f 57f
9:00am 3ft 8s 9 11 mph 1018.8mb 52f 56f
8:00am 3ft 8s 7 9 mph 1017.7mb 52f 56f
7:00am 3ft 8s 7
mph
1016.4mb 51f 56f
5:00am 3ft 8s 9
mph
1015.5mb 52f 56f